Aeroporto :
LOGIN :

Iscrizione | Disclaimer

   EN    FR    IT 

 










Sommario :    VFR   VFR Marginale   IFR   IFR Intensivo   IFR Molto Intensivo
Visibilità : 
Base nubi : 
>= 8 km
>= 3000ft
5 / 8 km
1000 / 3000 ft
1500m / 5 km
500 / 1000 ft
800 / 1500m
200 / 500 ft
< 800m
< 200 ft
Simboli :   Temporali  Nebbia  Neve Forte  Precipitazioni Forti  Vento > 20 kt
SIGMETs :   Varie  Temporali  Ghiacco  Turbolenza  Onda orograficha  Ceneri Vulcaniche






- Altitudine del aeroporto : 870 ft
- Codice IATA : ETZ


LFJL - Metz Nancy Lorraine

ULTIMO METAR :
  • 261000Z AUTO 10005KT CAVOK 03/01 Q1022 NOSIG

METARs OBSOLETI :
  • 260930Z AUTO 10005KT CAVOK 03/01 Q1022 NOSIG
  • 260900Z AUTO 11005KT CAVOK 02/M00 Q1022 NOSIG
  • 260830Z AUTO VRB02KT 9000 NSC 01/M01 Q1022 NOSIG
  • 260800Z AUTO 10004KT 060V120 7000 NSC 00/M01 Q1022 NOSIG
  • 260730Z AUTO VRB02KT 5000 2400 BR NSC M01/M02 Q1022 NOSIG
  • 260700Z AUTO 10004KT 050V130 5000 BR NSC M01/M01 Q1021 TEMPO 0800 BCFG

TAF TAF LFJL
Valido dal 26 a 06 ore il 27 a 06 ore UTC


260500Z 2606/2706 VRB04KT 8000 NSC
TEMPO 2606/2608 4000 BR
PROB30
TEMPO 2606/2608 0800 BCFG
BECMG 2618/2621 3000 BR
TEMPO 2700/2706 0500 FG VV///



MetMap, La meteo Aeronautica in un colpo d'occhio ! - Copyright ORBIFLY Dicembre 2007 - Disclaimer

ORBIFLY MET'MAP TEAM :

Programmazione e sviluppo : Alexandra Zaïnal
Concezione : Baudouin d'Aumeries
Aiuto per la programmazione : Marc-Olivier Méhu
Supporto tecnico e logistico : Manuel Goepfert
Aiuto per la traduzione : Arnaldo La Scala

Contatto : metmap@orbifly.com




FONTI E CREDITI :

   NOAA